Time;durP1;ratioP1;P1;durP2;ratioP2;P2;SDS_P1;SDS_P2;PMS_P1;PMS_P2;Temp;Humidity;BMP_temperature;BMP_pressure;BME280_temperature;BME280_humidity;BME280_pressure;Samples;Min_cycle;Max_cycle;Signal;HPM_P1;HPM_P2
2023/03/07 00:02:22;;;;;;;10.65;3.95;;;6.00;63.70;;;;;;4976176;28;92632;-71
2023/03/07 00:04:48;;;;;;;8.82;3.85;;;6.00;63.40;;;;;;4990047;28;91746;-72
2023/03/07 00:07:14;;;;;;;10.68;4.40;;;6.00;63.80;;;;;;4987090;28;93138;-72
2023/03/07 00:09:40;;;;;;;11.70;4.40;;;6.00;63.60;;;;;;4984851;28;92961;-71
2023/03/07 00:12:07;;;;;;;9.43;4.15;;;6.00;63.70;;;;;;4986624;28;93495;-71
2023/03/07 00:14:33;;;;;;;11.00;4.50;;;6.00;63.80;;;;;;4990966;28;92546;-70
2023/03/07 00:16:58;;;;;;;10.75;4.32;;;6.00;63.80;;;;;;4978808;28;93152;-73
2023/03/07 00:19:24;;;;;;;10.55;4.50;;;6.00;64.10;;;;;;4975709;28;92710;-71
2023/03/07 00:21:50;;;;;;;11.40;4.35;;;5.90;64.40;;;;;;4975394;28;92340;-72
2023/03/07 00:24:15;;;;;;;11.57;4.28;;;5.90;64.30;;;;;;4976096;28;92604;-73
2023/03/07 00:26:41;;;;;;;8.93;3.80;;;5.90;64.30;;;;;;4975711;28;93897;-71
2023/03/07 00:29:08;;;;;;;10.70;4.13;;;5.90;64.20;;;;;;4980530;28;92382;-71
2023/03/07 00:31:34;;;;;;;9.82;4.18;;;5.90;64.10;;;;;;4975367;28;92346;-71
2023/03/07 00:34:00;;;;;;;10.95;4.15;;;6.00;64.20;;;;;;4979937;28;92640;-72
2023/03/07 00:36:27;;;;;;;13.23;4.10;;;6.00;64.40;;;;;;4987561;28;93797;-70
2023/03/07 00:38:53;;;;;;;11.75;4.85;;;6.00;64.30;;;;;;4991521;28;94287;-71
2023/03/07 00:41:24;;;;;;;11.98;4.22;;;5.90;64.20;;;;;;4983886;28;92476;-68
2023/03/07 00:43:50;;;;;;;13.05;4.45;;;5.90;64.50;;;;;;4975824;28;92332;-71
2023/03/07 00:46:17;;;;;;;10.13;4.25;;;5.90;64.50;;;;;;4980875;28;92357;-68
2023/03/07 00:48:43;;;;;;;9.82;4.40;;;5.90;64.60;;;;;;4973710;28;92769;-70
2023/03/07 00:51:12;;;;;;;10.35;4.00;;;5.90;64.60;;;;;;4975058;28;92426;-72
2023/03/07 00:53:38;;;;;;;11.45;4.70;;;5.90;64.50;;;;;;4976130;28;91754;-68
2023/03/07 00:56:14;;;;;;;11.63;4.70;;;5.90;64.30;;;;;;4982887;28;92875;-69
2023/03/07 00:58:40;;;;;;;11.82;4.18;;;5.80;64.80;;;;;;4975081;28;92881;-69
2023/03/07 01:01:08;;;;;;;11.23;4.65;;;5.80;65.00;;;;;;4980789;28;94740;-71
2023/03/07 01:03:34;;;;;;;8.95;4.35;;;5.80;65.10;;;;;;4989771;28;93441;-70
2023/03/07 01:06:06;;;;;;;12.15;4.65;;;5.80;65.20;;;;;;4978165;28;92658;-72
2023/03/07 01:08:32;;;;;;;10.40;4.40;;;5.90;65.40;;;;;;4974966;28;92861;-69
2023/03/07 01:11:00;;;;;;;10.52;4.32;;;5.90;65.60;;;;;;4974698;28;92417;-71
2023/03/07 01:13:26;;;;;;;10.40;4.43;;;5.90;66.00;;;;;;4974202;28;92841;-70
2023/03/07 01:15:52;;;;;;;10.48;4.20;;;5.80;65.80;;;;;;4972868;28;96959;-71
2023/03/07 01:18:18;;;;;;;10.23;4.60;;;5.80;65.70;;;;;;4975358;28;93301;-72
2023/03/07 01:20:44;;;;;;;12.43;4.07;;;5.80;66.10;;;;;;4975644;28;92298;-71
2023/03/07 01:23:09;;;;;;;13.35;4.30;;;5.80;65.80;;;;;;4975067;28;92276;-70
2023/03/07 01:25:41;;;;;;;12.02;4.82;;;5.80;66.20;;;;;;4975254;28;94143;-71
2023/03/07 01:28:11;;;;;;;10.38;4.30;;;5.70;66.60;;;;;;4994689;28;94184;-70
2023/03/07 01:30:37;;;;;;;11.50;4.55;;;5.70;66.10;;;;;;4980417;28;92308;-71
2023/03/07 01:33:02;;;;;;;9.82;3.88;;;5.70;66.10;;;;;;4974768;28;93058;-72
2023/03/07 01:35:28;;;;;;;14.30;4.97;;;5.60;66.40;;;;;;4986814;28;93321;-70
2023/03/07 01:37:54;;;;;;;10.77;4.50;;;5.70;66.40;;;;;;4985197;28;92306;-69
2023/03/07 01:40:21;;;;;;;11.38;4.25;;;5.70;66.30;;;;;;4975399;28;92218;-69
2023/03/07 01:42:48;;;;;;;11.98;4.38;;;5.70;66.00;;;;;;4986819;28;92165;-72
2023/03/07 01:45:13;;;;;;;10.98;4.32;;;5.70;65.80;;;;;;4978220;28;92448;-70
2023/03/07 01:47:42;;;;;;;11.82;4.65;;;5.70;66.60;;;;;;4974020;28;92874;-69
2023/03/07 01:50:15;;;;;;;11.02;4.38;;;5.60;67.30;;;;;;4972866;28;93382;-69
2023/03/07 01:52:45;;;;;;;13.80;4.38;;;5.50;67.90;;;;;;4985131;28;92439;-68
2023/03/07 01:55:16;;;;;;;10.25;4.32;;;5.50;67.90;;;;;;4989568;28;93110;-73
2023/03/07 01:57:44;;;;;;;11.05;4.45;;;5.40;68.70;;;;;;4982304;28;92698;-71
2023/03/07 02:00:17;;;;;;;12.65;4.93;;;5.40;68.40;;;;;;4983153;28;92383;-71
2023/03/07 02:02:48;;;;;;;11.32;4.22;;;5.50;68.50;;;;;;4987457;28;92376;-71
2023/03/07 02:05:28;;;;;;;10.38;3.78;;;5.50;68.40;;;;;;4984287;28;92750;-70
2023/03/07 02:07:55;;;;;;;11.55;4.65;;;5.50;67.70;;;;;;4977917;28;92543;-72
2023/03/07 02:10:22;;;;;;;10.93;4.43;;;5.50;67.00;;;;;;4978693;28;92405;-69
2023/03/07 02:12:50;;;;;;;11.57;5.00;;;5.50;67.00;;;;;;4979172;28;92280;-71
2023/03/07 02:15:16;;;;;;;11.13;4.43;;;5.50;67.10;;;;;;4977351;28;94106;-73
2023/03/07 02:17:43;;;;;;;12.13;4.32;;;5.50;67.40;;;;;;4978341;28;94269;-70
2023/03/07 02:20:17;;;;;;;12.40;4.72;;;5.50;67.50;;;;;;4997659;28;93676;-69
2023/03/07 02:22:43;;;;;;;12.68;4.72;;;5.40;67.60;;;;;;4979485;28;92029;-70
2023/03/07 02:25:32;;;;;;;10.57;4.57;;;5.50;67.90;;;;;;4996861;28;92744;-71
2023/03/07 02:27:59;;;;;;;11.63;4.25;;;5.50;67.90;;;;;;4974686;28;93736;-70
2023/03/07 02:30:25;;;;;;;10.38;4.20;;;5.50;67.90;;;;;;4982536;28;92448;-68
2023/03/07 02:32:51;;;;;;;9.77;4.55;;;5.50;67.70;;;;;;4995682;28;91490;-66
2023/03/07 02:35:20;;;;;;;11.77;5.20;;;5.40;67.70;;;;;;4995140;28;92661;-69
2023/03/07 02:37:50;;;;;;;13.70;5.00;;;5.40;67.90;;;;;;4986869;28;94845;-70
2023/03/07 02:40:19;;;;;;;10.88;4.70;;;5.40;67.50;;;;;;4986988;28;93284;-69
2023/03/07 02:42:45;;;;;;;15.45;4.88;;;5.40;67.80;;;;;;4985053;28;92431;-70
2023/03/07 02:45:15;;;;;;;12.02;4.43;;;5.50;67.70;;;;;;4977469;28;93654;-72
2023/03/07 02:47:42;;;;;;;12.35;4.60;;;5.50;67.70;;;;;;4977352;28;93655;-71
2023/03/07 02:50:09;;;;;;;12.63;4.70;;;5.40;67.80;;;;;;4991129;28;92473;-71
2023/03/07 02:52:35;;;;;;;10.60;4.68;;;5.40;67.80;;;;;;4996472;28;92541;-73
2023/03/07 02:55:00;;;;;;;14.20;4.75;;;5.50;68.20;;;;;;4984499;28;92747;-72
2023/03/07 02:57:26;;;;;;;11.48;4.38;;;5.50;68.00;;;;;;4978387;28;92310;-72
2023/03/07 02:59:52;;;;;;;13.52;5.10;;;5.50;67.90;;;;;;4975969;28;92365;-71
2023/03/07 03:02:18;;;;;;;10.18;4.20;;;5.50;68.10;;;;;;4977291;28;92512;-70
2023/03/07 03:04:43;;;;;;;12.75;5.07;;;5.40;68.10;;;;;;4988109;28;93585;-71
2023/03/07 03:07:09;;;;;;;11.15;4.03;;;5.40;68.20;;;;;;4976708;28;93763;-71
2023/03/07 03:09:35;;;;;;;15.65;4.63;;;5.40;68.20;;;;;;4977159;28;92521;-70
2023/03/07 03:12:00;;;;;;;12.57;4.90;;;5.40;68.40;;;;;;4986897;28;92233;-70
2023/03/07 03:14:26;;;;;;;10.57;4.63;;;5.30;69.20;;;;;;4977317;28;93214;-72
2023/03/07 03:16:52;;;;;;;16.52;4.82;;;5.30;69.30;;;;;;4976532;28;92987;-73
2023/03/07 03:19:18;;;;;;;13.15;5.20;;;5.30;69.20;;;;;;4982217;28;92561;-71
2023/03/07 03:21:44;;;;;;;10.73;4.60;;;5.30;69.70;;;;;;4977633;28;91678;-71
2023/03/07 03:24:10;;;;;;;12.90;5.10;;;5.20;70.60;;;;;;4979797;28;93735;-70
2023/03/07 03:26:36;;;;;;;11.57;4.85;;;5.30;70.20;;;;;;4996764;28;93213;-71
2023/03/07 03:29:03;;;;;;;13.05;5.22;;;5.30;70.30;;;;;;4996771;28;93781;-72
2023/03/07 03:31:30;;;;;;;12.45;5.13;;;5.20;70.40;;;;;;4977883;28;92455;-72
2023/03/07 03:33:57;;;;;;;10.23;4.72;;;5.20;70.70;;;;;;4976717;28;93053;-70
2023/03/07 03:36:27;;;;;;;10.90;5.10;;;5.10;71.00;;;;;;4976933;28;93050;-71
2023/03/07 03:38:54;;;;;;;16.55;6.03;;;5.10;70.90;;;;;;4976718;28;92484;-71
2023/03/07 03:41:20;;;;;;;15.75;6.47;;;5.10;71.00;;;;;;4979082;28;92097;-71
2023/03/07 03:43:46;;;;;;;14.68;5.82;;;4.90;71.50;;;;;;4996034;28;93286;-70
2023/03/07 03:46:13;;;;;;;14.05;5.60;;;4.90;71.70;;;;;;4976943;28;92452;-69
2023/03/07 03:48:39;;;;;;;15.02;5.72;;;4.80;71.90;;;;;;4992701;28;92428;-70
2023/03/07 03:51:06;;;;;;;15.30;5.95;;;4.70;71.70;;;;;;4996412;28;92750;-70
2023/03/07 03:53:34;;;;;;;16.15;5.82;;;4.60;72.00;;;;;;4984680;28;93942;-70
2023/03/07 03:56:17;;;;;;;14.15;5.68;;;4.50;72.70;;;;;;4986435;28;93793;-71
2023/03/07 03:58:50;;;;;;;15.57;5.07;;;4.40;73.30;;;;;;4991202;28;92504;-70
2023/03/07 04:01:17;;;;;;;12.88;5.03;;;4.40;73.10;;;;;;4975486;28;92592;-71
2023/03/07 04:03:45;;;;;;;14.75;5.07;;;4.30;73.10;;;;;;4975723;28;93217;-70
2023/03/07 04:06:14;;;;;;;12.55;4.95;;;4.30;73.00;;;;;;4975458;28;93355;-69
2023/03/07 04:08:41;;;;;;;12.55;5.32;;;4.30;73.00;;;;;;4976350;28;92357;-70
2023/03/07 04:11:07;;;;;;;14.63;5.63;;;4.20;73.20;;;;;;4984214;28;91691;-72
2023/03/07 04:13:33;;;;;;;12.02;5.03;;;4.20;73.20;;;;;;4983088;28;92683;-69
2023/03/07 04:15:59;;;;;;;12.88;4.95;;;4.10;73.10;;;;;;4975915;28;92363;-72
2023/03/07 04:18:25;;;;;;;13.90;5.30;;;4.10;73.60;;;;;;4975629;28;93285;-70
2023/03/07 04:20:51;;;;;;;12.77;4.63;;;4.00;73.80;;;;;;4975119;28;94042;-70
2023/03/07 04:23:19;;;;;;;12.95;5.22;;;3.90;74.40;;;;;;4985818;28;93451;-69
2023/03/07 04:25:48;;;;;;;15.57;5.90;;;3.80;74.70;;;;;;4976836;28;93340;-71
2023/03/07 04:28:18;;;;;;;14.68;5.30;;;3.80;75.20;;;;;;4979596;28;92400;-70
2023/03/07 04:30:44;;;;;;;11.75;4.75;;;3.70;75.20;;;;;;4994227;28;92259;-71
2023/03/07 04:33:11;;;;;;;12.93;5.00;;;3.70;75.60;;;;;;4968933;28;93280;-69
2023/03/07 04:35:38;;;;;;;17.42;5.07;;;3.60;75.80;;;;;;4966328;28;93089;-69
2023/03/07 04:38:04;;;;;;;13.70;4.55;;;3.60;76.10;;;;;;4968974;28;92453;-67
2023/03/07 04:40:30;;;;;;;11.75;4.57;;;3.50;76.10;;;;;;4977251;28;93898;-72
2023/03/07 04:42:56;;;;;;;15.25;5.53;;;3.40;76.20;;;;;;4981684;28;94282;-69
2023/03/07 04:45:22;;;;;;;14.63;5.53;;;3.30;76.10;;;;;;4977850;28;93242;-69
2023/03/07 04:47:47;;;;;;;15.15;5.47;;;3.30;76.10;;;;;;4975675;28;92474;-67
2023/03/07 04:50:13;;;;;;;13.77;5.03;;;3.30;76.90;;;;;;4983636;28;92107;-70
2023/03/07 04:52:39;;;;;;;14.90;5.38;;;3.10;76.80;;;;;;4974010;28;94152;-68
2023/03/07 04:55:04;;;;;;;15.50;5.53;;;3.10;77.10;;;;;;4970632;28;94057;-69
2023/03/07 04:57:30;;;;;;;13.98;5.38;;;3.10;77.20;;;;;;4962297;28;92452;-68
2023/03/07 04:59:56;;;;;;;13.25;5.28;;;3.00;77.20;;;;;;4988260;28;91785;-69
2023/03/07 05:02:22;;;;;;;15.23;5.45;;;3.00;77.50;;;;;;4984953;28;92676;-72
2023/03/07 05:04:47;;;;;;;12.43;4.68;;;2.90;77.40;;;;;;4978576;28;92446;-72
2023/03/07 05:07:13;;;;;;;13.82;5.22;;;2.90;77.60;;;;;;4975509;28;93227;-73
2023/03/07 05:09:39;;;;;;;12.13;4.85;;;2.80;77.80;;;;;;4975505;28;92183;-68
2023/03/07 05:12:05;;;;;;;16.55;4.93;;;2.80;78.60;;;;;;4984126;28;93110;-70
2023/03/07 05:14:30;;;;;;;16.73;5.22;;;2.80;78.20;;;;;;4983478;28;94290;-71
2023/03/07 05:16:56;;;;;;;12.95;4.93;;;2.70;78.60;;;;;;4974769;28;93028;-70
2023/03/07 05:19:22;;;;;;;14.27;5.20;;;2.60;78.80;;;;;;4978033;28;92682;-70
2023/03/07 05:21:48;;;;;;;12.43;4.43;;;2.60;79.10;;;;;;4994761;28;92427;-70
2023/03/07 05:24:14;;;;;;;14.18;5.45;;;2.60;79.00;;;;;;4984136;28;92288;-71
2023/03/07 05:26:40;;;;;;;15.73;5.28;;;2.60;78.90;;;;;;4983697;28;92537;-70
2023/03/07 05:29:06;;;;;;;16.40;5.93;;;2.50;79.30;;;;;;4975673;28;92456;-72
2023/03/07 05:31:32;;;;;;;13.77;5.85;;;2.50;79.30;;;;;;4973086;28;94096;-70
2023/03/07 05:33:57;;;;;;;17.48;5.32;;;2.60;79.50;;;;;;4974483;28;93770;-70
2023/03/07 05:36:23;;;;;;;12.88;5.05;;;2.60;79.70;;;;;;4977415;28;92020;-71
2023/03/07 05:38:52;;;;;;;16.48;5.35;;;2.50;79.70;;;;;;4975319;28;92105;-69
2023/03/07 05:41:18;;;;;;;15.32;5.60;;;2.60;80.10;;;;;;4968874;28;93137;-70
2023/03/07 05:43:43;;;;;;;15.32;5.60;;;2.60;80.30;;;;;;4974025;28;92949;-71
2023/03/07 05:46:09;;;;;;;12.68;5.30;;;2.60;79.60;;;;;;4973601;28;94196;-69
2023/03/07 05:48:34;;;;;;;14.75;5.75;;;2.70;79.70;;;;;;4975278;28;91820;-69
2023/03/07 05:51:00;;;;;;;18.27;5.22;;;2.80;79.20;;;;;;4977644;28;93049;-71
2023/03/07 05:53:26;;;;;;;14.90;5.47;;;2.90;79.00;;;;;;4975387;28;92816;-70
2023/03/07 05:55:52;;;;;;;13.10;4.82;;;2.90;79.00;;;;;;4965469;28;93601;-71
2023/03/07 05:58:17;;;;;;;12.50;5.03;;;3.00;78.80;;;;;;4969038;28;92174;-71
2023/03/07 06:00:43;;;;;;;14.55;6.10;;;3.00;78.70;;;;;;4966899;28;92887;-70
2023/03/07 06:03:08;;;;;;;15.82;5.90;;;3.10;78.50;;;;;;4973782;28;93372;-72
2023/03/07 06:05:34;;;;;;;17.13;5.75;;;3.20;78.40;;;;;;4970211;28;93236;-73
2023/03/07 06:08:00;;;;;;;17.00;5.65;;;3.20;78.20;;;;;;4966492;28;92604;-70
2023/03/07 06:10:26;;;;;;;16.65;5.88;;;3.30;78.20;;;;;;4968931;28;92701;-71
2023/03/07 06:12:54;;;;;;;15.65;5.68;;;3.30;78.00;;;;;;4968839;28;92672;-71
2023/03/07 06:15:21;;;;;;;14.40;6.03;;;3.40;77.90;;;;;;4964431;28;92367;-73
2023/03/07 06:17:47;;;;;;;16.50;6.03;;;3.50;78.00;;;;;;4979715;28;92458;-71
2023/03/07 06:20:15;;;;;;;18.00;6.22;;;3.50;77.90;;;;;;4972613;28;94163;-71
2023/03/07 06:22:41;;;;;;;17.98;6.28;;;3.60;77.40;;;;;;4969067;28;93710;-70
2023/03/07 06:25:08;;;;;;;15.77;5.90;;;3.80;77.40;;;;;;4970969;28;92618;-68
2023/03/07 06:27:35;;;;;;;17.52;6.03;;;3.90;76.90;;;;;;4972379;28;93141;-69
2023/03/07 06:30:01;;;;;;;13.48;5.78;;;4.00;76.70;;;;;;4971279;28;93102;-72
2023/03/07 06:32:26;;;;;;;14.93;5.53;;;4.00;76.80;;;;;;4972259;28;92574;-69
2023/03/07 06:34:52;;;;;;;20.50;6.50;;;4.10;76.60;;;;;;4972143;28;92533;-72
2023/03/07 06:37:18;;;;;;;18.08;6.78;;;4.20;76.20;;;;;;4979361;28;91507;-71
2023/03/07 06:39:43;;;;;;;18.25;6.70;;;4.20;76.50;;;;;;4973568;28;93999;-71
2023/03/07 06:42:09;;;;;;;17.58;6.20;;;4.20;76.10;;;;;;4974455;28;92917;-71
2023/03/07 06:44:35;;;;;;;16.35;6.82;;;4.40;76.10;;;;;;4964092;28;93372;-72
2023/03/07 06:47:00;;;;;;;16.98;6.15;;;4.40;76.40;;;;;;4962126;28;92810;-70
2023/03/07 06:49:26;;;;;;;19.42;7.13;;;4.50;76.40;;;;;;4968246;28;94406;-69
2023/03/07 06:51:52;;;;;;;22.25;6.45;;;4.50;76.40;;;;;;4976555;28;92411;-72
2023/03/07 06:54:17;;;;;;;17.50;6.45;;;4.60;76.20;;;;;;4974678;28;92672;-71
2023/03/07 06:56:43;;;;;;;18.45;6.95;;;4.60;75.70;;;;;;4970323;28;92513;-72
2023/03/07 06:59:09;;;;;;;18.45;6.57;;;4.60;75.80;;;;;;4975125;28;93638;-71
2023/03/07 07:01:36;;;;;;;21.67;7.00;;;4.70;75.80;;;;;;4975747;28;93125;-71
2023/03/07 07:04:02;;;;;;;17.90;6.63;;;4.80;76.00;;;;;;4979665;28;93709;-71
2023/03/07 07:06:28;;;;;;;22.20;7.13;;;4.80;75.40;;;;;;4978842;28;92355;-72
2023/03/07 07:08:55;;;;;;;23.75;6.93;;;4.90;74.70;;;;;;4973434;28;94208;-71
2023/03/07 07:11:21;;;;;;;21.55;6.43;;;5.00;74.30;;;;;;4977644;28;93895;-71
2023/03/07 07:13:46;;;;;;;29.70;6.50;;;5.10;74.20;;;;;;4975051;28;93116;-71
2023/03/07 07:16:12;;;;;;;23.48;7.05;;;5.10;73.70;;;;;;4971204;28;92297;-72
2023/03/07 07:18:38;;;;;;;24.17;6.53;;;5.20;73.70;;;;;;4969415;28;92824;-71
2023/03/07 07:21:04;;;;;;;16.48;6.13;;;5.20;73.40;;;;;;4977214;28;94203;-71
2023/03/07 07:23:30;;;;;;;15.13;6.25;;;5.30;73.50;;;;;;4971780;28;92684;-72
2023/03/07 07:25:55;;;;;;;16.08;6.15;;;5.30;73.20;;;;;;4978507;28;91452;-71
2023/03/07 07:28:21;;;;;;;17.17;6.70;;;5.40;72.90;;;;;;4977329;28;93084;-71
2023/03/07 07:30:47;;;;;;;14.13;6.53;;;5.50;73.70;;;;;;4980393;28;93179;-71
2023/03/07 07:33:12;;;;;;;37.20;7.30;;;5.60;73.70;;;;;;4974804;28;95207;-71
2023/03/07 07:35:38;;;;;;;25.35;7.88;;;5.70;72.90;;;;;;4974524;28;92448;-72
2023/03/07 07:38:04;;;;;;;19.38;7.10;;;5.80;72.00;;;;;;4976540;28;93872;-72
2023/03/07 07:40:30;;;;;;;18.42;6.75;;;5.80;72.00;;;;;;4964900;28;92490;-72
2023/03/07 07:42:55;;;;;;;13.68;6.45;;;5.80;71.10;;;;;;4961627;28;93702;-71
2023/03/07 07:45:22;;;;;;;17.05;6.85;;;5.90;70.30;;;;;;4971835;28;92586;-70
2023/03/07 07:47:48;;;;;;;17.20;6.72;;;5.90;71.70;;;;;;4959631;28;92978;-71
2023/03/07 07:50:16;;;;;;;16.20;6.90;;;5.90;70.30;;;;;;4967724;28;93516;-71
2023/03/07 07:52:42;;;;;;;15.02;6.60;;;6.00;70.50;;;;;;4971859;28;93009;-71
2023/03/07 07:55:09;;;;;;;21.98;6.65;;;6.10;69.40;;;;;;4958579;28;92915;-74
2023/03/07 07:57:36;;;;;;;17.73;6.80;;;6.10;70.30;;;;;;4967321;28;94086;-73
2023/03/07 08:00:03;;;;;;;16.80;6.85;;;6.10;69.70;;;;;;4973121;28;93253;-72
2023/03/07 08:02:29;;;;;;;23.17;6.95;;;6.10;69.90;;;;;;4973181;28;93343;-71
2023/03/07 08:04:55;;;;;;;19.17;7.25;;;6.20;69.70;;;;;;4969883;28;94856;-70
2023/03/07 08:07:21;;;;;;;15.57;6.70;;;6.20;69.50;;;;;;4967340;28;94492;-71
2023/03/07 08:09:47;;;;;;;21.38;6.75;;;6.30;69.20;;;;;;4969346;28;94182;-72
2023/03/07 08:12:13;;;;;;;19.08;6.55;;;6.40;68.40;;;;;;4974093;28;93451;-72
2023/03/07 08:14:39;;;;;;;17.73;6.85;;;6.50;68.30;;;;;;4989906;28;91634;-70
2023/03/07 08:17:04;;;;;;;20.77;7.50;;;6.50;68.40;;;;;;4971221;28;93314;-71
2023/03/07 08:19:30;;;;;;;16.88;6.70;;;6.50;68.30;;;;;;4975412;28;94226;-71
2023/03/07 08:21:57;;;;;;;19.95;7.05;;;6.60;67.50;;;;;;4978628;28;93500;-71
2023/03/07 08:24:23;;;;;;;15.25;6.03;;;6.70;67.60;;;;;;4972843;28;92562;-70
2023/03/07 08:26:49;;;;;;;21.00;7.38;;;6.80;67.00;;;;;;4973191;28;92577;-71
2023/03/07 08:29:14;;;;;;;17.88;6.20;;;6.90;67.40;;;;;;4970921;28;93192;-71
2023/03/07 08:31:44;;;;;;;14.40;6.00;;;6.90;66.60;;;;;;4977464;28;92422;-70
2023/03/07 08:34:10;;;;;;;14.15;6.55;;;7.00;65.90;;;;;;4969812;28;92461;-70
2023/03/07 08:36:36;;;;;;;18.23;6.63;;;7.10;65.40;;;;;;4978254;28;93495;-71
2023/03/07 08:39:02;;;;;;;23.98;6.97;;;7.10;66.10;;;;;;4974001;28;93506;-72
2023/03/07 08:41:28;;;;;;;17.58;6.70;;;7.20;66.30;;;;;;4971568;28;93256;-71
2023/03/07 08:43:53;;;;;;;22.20;6.72;;;7.30;66.60;;;;;;4971863;28;92455;-72
2023/03/07 08:46:19;;;;;;;15.10;5.85;;;7.50;64.90;;;;;;4979090;28;94759;-71
2023/03/07 08:48:45;;;;;;;16.20;6.32;;;7.70;64.60;;;;;;4974355;28;94367;-70
2023/03/07 08:51:14;;;;;;;14.77;5.80;;;7.90;64.60;;;;;;4970109;28;93969;-72
2023/03/07 08:53:41;;;;;;;17.67;6.65;;;8.10;63.20;;;;;;4970281;28;93218;-70
2023/03/07 08:56:09;;;;;;;19.70;6.45;;;8.20;63.20;;;;;;4973292;28;93808;-71
2023/03/07 08:58:35;;;;;;;14.75;6.20;;;8.40;61.40;;;;;;4965667;28;92888;-70
2023/03/07 09:01:02;;;;;;;15.65;5.90;;;8.30;61.20;;;;;;4977630;28;92546;-72
2023/03/07 09:03:28;;;;;;;15.15;6.00;;;8.50;61.30;;;;;;4975127;28;91840;-71
2023/03/07 09:05:54;;;;;;;13.48;6.00;;;9.00;59.80;;;;;;4973336;28;92963;-70
2023/03/07 09:08:20;;;;;;;13.55;5.80;;;9.50;59.10;;;;;;4959165;28;92677;-71
2023/03/07 09:10:46;;;;;;;14.55;5.72;;;11.40;55.80;;;;;;4964193;28;93514;-72
2023/03/07 09:13:12;;;;;;;14.82;6.18;;;13.10;51.80;;;;;;4961723;28;92444;-71
2023/03/07 09:15:39;;;;;;;13.65;5.22;;;14.20;50.00;;;;;;4979266;28;94342;-72
2023/03/07 09:18:05;;;;;;;14.25;5.43;;;14.20;48.50;;;;;;4965779;28;92440;-70
2023/03/07 09:20:31;;;;;;;12.15;5.82;;;14.10;48.00;;;;;;4964663;28;92660;-69
2023/03/07 09:22:57;;;;;;;12.82;5.93;;;14.40;48.10;;;;;;4970498;28;92674;-71
2023/03/07 09:25:22;;;;;;;12.60;6.22;;;14.90;45.90;;;;;;4971767;28;93260;-71
2023/03/07 09:27:49;;;;;;;12.00;6.43;;;14.70;46.10;;;;;;4968018;28;93478;-71
2023/03/07 09:30:15;;;;;;;14.98;6.00;;;14.30;46.20;;;;;;4970614;28;94243;-71
2023/03/07 09:32:41;;;;;;;13.13;6.35;;;15.10;46.70;;;;;;4970993;28;92966;-70
2023/03/07 09:35:09;;;;;;;13.98;6.90;;;17.70;44.70;;;;;;4963652;28;95499;-68
2023/03/07 09:37:35;;;;;;;10.57;6.53;;;20.10;39.10;;;;;;4979063;28;94195;-72
2023/03/07 09:40:04;;;;;;;12.25;6.38;;;21.20;37.00;;;;;;4975587;28;92758;-72
2023/03/07 09:42:30;;;;;;;;;;;22.50;35.30;;;;;;4968172;28;93764;-71
2023/03/07 09:45:23;;;;;;;14.57;6.72;;;23.80;34.60;;;;;;4968083;28;93069;-71
2023/03/07 09:47:56;;;;;;;12.00;7.20;;;25.00;33.60;;;;;;4964091;28;93598;-72
2023/03/07 09:50:39;;;;;;;12.15;7.18;;;25.50;32.10;;;;;;4968169;28;92635;-71
2023/03/07 09:53:14;;;;;;;11.05;7.18;;;25.40;31.50;;;;;;4967794;28;91657;-71
2023/03/07 09:55:41;;;;;;;11.55;7.45;;;26.90;30.00;;;;;;4964771;28;94191;-71
2023/03/07 09:58:14;;;;;;;11.75;6.93;;;26.80;29.70;;;;;;4966230;28;92408;-72
2023/03/07 10:00:41;;;;;;;13.80;6.95;;;27.00;29.50;;;;;;4965213;28;93908;-72
2023/03/07 10:03:07;;;;;;;12.55;7.03;;;25.40;29.00;;;;;;4970813;28;93612;-70
2023/03/07 10:05:47;;;;;;;11.57;7.25;;;25.30;29.50;;;;;;4966546;28;92923;-71
2023/03/07 10:08:27;;;;;;;13.05;7.63;;;25.70;29.80;;;;;;4970222;28;94559;-73
2023/03/07 10:11:07;;;;;;;11.48;7.78;;;26.00;29.30;;;;;;4955488;28;93664;-73
2023/03/07 10:13:36;;;;;;;12.13;7.68;;;25.40;29.60;;;;;;4977471;28;92458;-73
2023/03/07 10:16:07;;;;;;;10.40;6.82;;;25.00;29.90;;;;;;4972709;28;93612;-71
2023/03/07 10:18:45;;;;;;;10.00;6.90;;;24.50;29.80;;;;;;4968412;28;93510;-72
2023/03/07 10:21:48;;;;;;;11.50;6.88;;;24.60;29.90;;;;;;4960666;28;94567;-71
2023/03/07 10:24:20;;;;;;;12.90;7.15;;;26.30;29.90;;;;;;4951183;28;93985;-70
2023/03/07 10:27:06;;;;;;;14.48;6.72;;;27.40;29.50;;;;;;4950315;28;96065;-71
2023/03/07 10:29:44;;;;;;;12.55;6.53;;;26.50;28.70;;;;;;4949333;28;96408;-70
2023/03/07 10:32:21;;;;;;;11.75;6.82;;;25.80;28.90;;;;;;4968778;28;93800;-70
2023/03/07 10:34:56;;;;;;;9.10;6.03;;;25.10;28.90;;;;;;4959556;28;93857;-71
2023/03/07 10:37:39;;;;;;;11.77;6.65;;;24.20;29.60;;;;;;4966809;28;94441;-73
2023/03/07 10:40:05;;;;;;;10.05;6.38;;;23.10;31.20;;;;;;4953430;28;94048;-73
2023/03/07 10:42:35;;;;;;;10.13;6.35;;;21.90;32.30;;;;;;4952252;28;93982;-73
2023/03/07 10:45:02;;;;;;;12.10;7.00;;;20.90;34.10;;;;;;4949194;28;92064;-72
2023/03/07 10:47:28;;;;;;;12.48;6.28;;;19.50;34.60;;;;;;4951897;28;95729;-72
2023/03/07 10:50:15;;;;;;;10.32;6.13;;;18.10;38.70;;;;;;4954876;28;94108;-70
2023/03/07 10:52:52;;;;;;;12.73;5.55;;;17.10;39.40;;;;;;4956089;28;95795;-70
2023/03/07 10:55:43;;;;;;;9.35;5.63;;;16.20;40.90;;;;;;4956481;28;93994;-71
2023/03/07 10:58:14;;;;;;;11.57;5.63;;;15.40;40.80;;;;;;4957605;28;94468;-70
2023/03/07 11:00:43;;;;;;;10.88;5.43;;;14.80;41.90;;;;;;4947850;28;93902;-71
2023/03/07 11:03:27;;;;;;;10.65;5.45;;;14.40;41.90;;;;;;4975852;28;92951;-70
2023/03/07 11:05:53;;;;;;;11.20;5.13;;;13.90;42.30;;;;;;4959495;28;94069;-71
2023/03/07 11:08:34;;;;;;;9.18;4.65;;;13.60;45.20;;;;;;4954647;28;94230;-72
2023/03/07 11:11:02;;;;;;;9.82;4.78;;;13.50;45.20;;;;;;4950267;28;93805;-70
2023/03/07 11:13:28;;;;;;;12.55;5.63;;;13.40;48.80;;;;;;4949017;28;95665;-73
2023/03/07 11:16:20;;;;;;;8.43;3.88;;;13.30;46.30;;;;;;4950967;28;93710;-69
2023/03/07 11:18:46;;;;;;;12.43;4.80;;;13.30;48.70;;;;;;4947900;28;95585;-71
2023/03/07 11:21:33;;;;;;;11.05;4.63;;;13.00;44.70;;;;;;4954171;28;94351;-72
2023/03/07 11:24:19;;;;;;;9.25;4.85;;;12.60;45.70;;;;;;4961638;28;94060;-72
2023/03/07 11:26:45;;;;;;;13.98;4.70;;;12.40;46.90;;;;;;4954155;28;94094;-73
2023/03/07 11:29:13;;;;;;;12.07;5.10;;;12.10;47.30;;;;;;4951141;28;95887;-70
2023/03/07 11:32:05;;;;;;;10.80;4.72;;;11.90;48.10;;;;;;4949931;28;94091;-72
2023/03/07 11:34:42;;;;;;;9.50;4.00;;;11.70;48.20;;;;;;4943722;28;94516;-70
2023/03/07 11:37:17;;;;;;;11.00;4.22;;;11.60;51.00;;;;;;4949178;28;92218;-73
2023/03/07 11:40:18;;;;;;;8.95;4.43;;;11.70;51.60;;;;;;4953939;28;93259;-71
2023/03/07 11:42:59;;;;;;;10.18;4.47;;;11.40;49.00;;;;;;4954970;28;93588;-72
2023/03/07 11:45:29;;;;;;;9.43;4.18;;;11.10;47.80;;;;;;4952668;28;93787;-71
2023/03/07 11:48:01;;;;;;;;;;;10.90;48.30;;;;;;4951288;28;94256;-73
2023/03/07 11:50:30;;;;;;;9.75;3.80;;;10.70;49.90;;;;;;4953265;28;93903;-71
2023/03/07 11:53:01;;;;;;;12.38;4.22;;;10.50;49.20;;;;;;4961781;28;92764;-70
2023/03/07 11:55:51;;;;;;;10.85;4.60;;;10.70;50.70;;;;;;4956800;28;93505;-73
2023/03/07 11:58:39;;;;;;;10.73;4.20;;;10.80;50.60;;;;;;4960061;28;92697;-70
2023/03/07 12:01:33;;;;;;;9.85;3.88;;;11.00;50.40;;;;;;4966624;28;92845;-70
2023/03/07 12:04:32;;;;;;;9.18;3.92;;;11.20;52.60;;;;;;4965934;28;92848;-72
2023/03/07 12:07:04;;;;;;;8.68;4.25;;;11.30;51.60;;;;;;4968855;28;93507;-70
2023/03/07 12:10:07;;;;;;;12.50;4.97;;;11.20;49.60;;;;;;4967617;28;93601;-70
2023/03/07 12:12:51;;;;;;;12.25;4.40;;;11.00;47.30;;;;;;4959282;28;95362;-70
2023/03/07 12:15:26;;;;;;;10.02;3.90;;;10.90;49.90;;;;;;4966540;28;93385;-70
2023/03/07 12:18:10;;;;;;;8.60;4.20;;;10.70;48.10;;;;;;4976035;28;92221;-70
2023/03/07 12:21:03;;;;;;;9.05;4.07;;;10.70;49.60;;;;;;4966635;28;94362;-71
2023/03/07 12:23:38;;;;;;;8.35;3.75;;;10.80;50.90;;;;;;4982110;28;93207;-70
2023/03/07 12:26:18;;;;;;;9.40;4.00;;;10.90;50.00;;;;;;4980432;28;93158;-71
2023/03/07 12:29:01;;;;;;;9.85;4.30;;;11.20;49.50;;;;;;4970141;28;92559;-71
2023/03/07 12:31:32;;;;;;;10.45;4.47;;;11.20;49.30;;;;;;4968195;28;93846;-70
2023/03/07 12:34:23;;;;;;;13.48;4.32;;;11.10;49.80;;;;;;4975245;28;92576;-70
2023/03/07 12:37:05;;;;;;;11.13;4.35;;;11.20;50.50;;;;;;4973763;28;93755;-70
2023/03/07 12:39:36;;;;;;;13.68;4.63;;;11.20;49.30;;;;;;4964816;28;95190;-70
2023/03/07 12:42:05;;;;;;;11.57;4.50;;;11.30;49.50;;;;;;4967682;28;92543;-70
2023/03/07 12:44:33;;;;;;;9.27;4.60;;;11.50;48.70;;;;;;4975489;28;92587;-70
2023/03/07 12:47:49;;;;;;;12.60;4.82;;;11.60;49.30;;;;;;4974896;28;93628;-70
2023/03/07 12:50:17;;;;;;;;;;;11.60;47.50;;;;;;4974258;28;92130;-70
2023/03/07 12:53:17;;;;;;;10.20;4.35;;;11.50;48.10;;;;;;4989295;28;92396;-71
2023/03/07 12:55:50;;;;;;;12.27;4.38;;;11.30;47.60;;;;;;4963979;28;92748;-70
2023/03/07 12:59:01;;;;;;;9.50;4.60;;;11.40;48.40;;;;;;4975639;28;92477;-70